Terminal Aerodrome Forecast
Issued by NWS Grand Forks, ND

Home | Current Version | Previous Version | Text Only | Print | Product List | Glossary Off
Versions: 1 2 3 4 5 6 7 8 9 10 11 12

000
FTUS43 KFGF 170525
TAFGFK
TAF
KGFK 170525Z 1706/1806 20007KT P6SM SKC
     FM171800 24010KT P6SM FEW250
     FM180300 27012KT P6SM SCT250=

USA.gov is the U.S. government's official web portal to all federal, state and local government web resources and services.